Terminal Aerodrome Forecast
Issued by NWS

Home | Current Version | Previous Version | Text Only | Print | Product List | Glossary On
Versions: 1 2 3 4 5 6 7 8 9 10 11 12 13 14 15 16 17 18 19 20 21 22 23 24 25 26 27 28 29
671
FTUS42 KCAE 260246 AAA
TAFOGB
TAF AMD
KOGB 260246Z 2603/2624 VRB03KT P6SM VCSH BKN070
     FM260600 VRB04KT 6SM BR VCSH SCT025 OVC050
     FM261300 VRB05KT 4SM BR VCSH OVC015
     FM261600 02005KT 3SM -RA BR OVC012
     FM262100 02005KT 6SM BR OVC015=

USA.gov is the U.S. government's official web portal to all federal, state and local government web resources and services.